Time;durP1;ratioP1;P1;durP2;ratioP2;P2;SDS_P1;SDS_P2;PMS_P1;PMS_P2;Temp;Humidity;BMP_temperature;BMP_pressure;BME280_temperature;BME280_humidity;BME280_pressure;Samples;Min_cycle;Max_cycle;Signal;HPM_P1;HPM_P2
2022/10/03 07:07:56;;;;;;;;;;;9.90;99.90;;;;;;6260669;22;19923;-77
2022/10/03 07:10:43;;;;;;;;;;;10.00;99.90;;;;;;6250508;22;19915;-80
2022/10/03 07:13:27;;;;;;;;;;;10.40;99.90;;;;;;6225317;22;19965;-78
2022/10/03 07:16:25;;;;;;;;;;;10.50;99.90;;;;;;6224768;22;20353;-78
2022/10/03 07:26:14;;;;;;;;;;;11.20;99.90;;;;;;6037592;23;19922;-75
2022/10/03 07:29:18;;;;;;;;;;;11.20;99.90;;;;;;5992016;23;19918;-77
2022/10/03 07:32:37;;;;;;;;;;;11.50;99.90;;;;;;6132875;23;20236;-78
2022/10/03 07:38:56;;;;;;;;;;;;;;;;;;;;;
2022/10/03 07:41:23;;;;;;;;;;;12.00;99.90;;;;;;6157998;23;20494;-80
2022/10/03 07:47:59;;;;;;;;;;;12.30;99.90;;;;;;6183080;23;19932;-81
2022/10/03 07:51:10;;;;;;;;;;;12.90;99.90;;;;;;6230153;22;19918;-81
2022/10/03 10:18:55;;;;;;;;;;;17.10;99.90;;;;;;6182336;23;19954;-74
2022/10/03 11:02:13;;;;;;;;;;;;;;;;;;;;;
2022/10/03 11:08:32;;;;;;;;;;;17.30;99.90;;;;;;6246734;23;19915;-74
2022/10/03 11:11:15;;;;;;;;;;;17.30;99.90;;;;;;6220088;23;19916;-78
2022/10/03 11:17:46;;;;;;;;;;;;;;;;;;;;;
2022/10/03 14:53:01;;;;;;;;;;;17.00;99.90;;;;;;6305518;22;20282;-78
2022/10/03 15:04:41;;;;;;;;;;;16.90;99.90;;;;;;6233161;22;19998;-82
2022/10/03 15:14:35;;;;;;;;;;;16.90;99.90;;;;;;6277442;22;19919;-79
2022/10/03 15:16:55;;;;;;;;;;;16.90;99.90;;;;;;6240801;22;19961;-76
2022/10/03 15:19:31;;;;;;;;;;;;;;;;;;;;;
2022/10/03 15:22:18;;;;;;;;;;;16.90;99.90;;;;;;6276860;22;20333;-76
2022/10/03 15:24:46;;;;;;;;;;;16.90;99.90;;;;;;6224939;22;19987;-78
2022/10/03 15:27:19;;;;;;;;;;;16.90;99.90;;;;;;6198993;22;19965;-76
2022/10/03 15:29:48;;;;;;;;;;;16.90;99.90;;;;;;6224496;22;19957;-74
2022/10/03 15:32:19;;;;;;;;;;;16.90;99.90;;;;;;6250098;22;19919;-74
2022/10/03 15:34:48;;;;;;;;;;;16.80;99.90;;;;;;6249870;22;19912;-75
2022/10/03 15:37:23;;;;;;;;;;;16.80;99.90;;;;;;6223453;22;19946;-73
2022/10/03 15:40:17;;;;;;;;;;;16.80;99.90;;;;;;6224256;22;19946;-78
2022/10/03 15:43:39;;;;;;;;;;;16.70;99.90;;;;;;6224792;22;19927;-77
2022/10/03 15:46:55;;;;;;;;;;;16.60;99.90;;;;;;6225570;22;20326;-76
2022/10/03 15:49:42;;;;;;;;;;;16.50;99.90;;;;;;6113242;23;19958;-72
2022/10/03 15:55:50;;;;;;;;;;;16.30;99.90;;;;;;6208100;22;19945;-77
2022/10/03 15:58:54;;;;;;;;;;;;;;;;;;;;;
2022/10/03 16:05:00;;;;;;;;;;;16.20;99.90;;;;;;6247548;22;19919;-73
2022/10/03 16:07:50;;;;;;;;;;;16.00;99.90;;;;;;6223855;22;19919;-74
2022/10/03 16:13:47;;;;;;;;;;;15.90;99.90;;;;;;6275655;22;20032;-73
2022/10/03 16:16:16;;;;;;;;;;;15.80;99.90;;;;;;6249185;22;20333;-71
2022/10/03 16:18:41;;;;;;;;;;;15.70;99.90;;;;;;6223428;22;19915;-72
2022/10/03 16:21:11;;;;;;;;;;;15.70;99.90;;;;;;6248842;22;19946;-74
2022/10/03 16:24:10;;;;;;;;;;;15.60;99.90;;;;;;6224461;22;19915;-73
2022/10/03 16:26:53;;;;;;;;;;;15.50;99.90;;;;;;6226034;22;19919;-70
2022/10/03 16:29:21;;;;;;;;;;;15.40;99.90;;;;;;6250809;22;19918;-74
2022/10/03 16:31:54;;;;;;;;;;;15.30;99.90;;;;;;6226235;22;19911;-75
2022/10/03 16:34:21;;;;;;;;;;;15.20;99.90;;;;;;6226107;22;19918;-75
2022/10/03 16:36:48;;;;;;;;;;;15.20;99.90;;;;;;6251066;22;19911;-75
2022/10/03 16:39:22;;;;;;;;;;;15.10;99.90;;;;;;6251544;22;19911;-73
2022/10/03 16:41:55;;;;;;;;;;;15.00;99.90;;;;;;6225037;22;20229;-76
2022/10/03 16:44:26;;;;;;;;;;;14.90;99.90;;;;;;6226358;22;19962;-73
2022/10/03 16:46:54;;;;;;;;;;;14.90;99.90;;;;;;6251052;22;20265;-73
2022/10/03 16:52:17;;;;;;;;;;;14.80;99.90;;;;;;6251440;22;19919;-73
2022/10/03 16:54:46;;;;;;;;;;;14.80;99.90;;;;;;6226294;22;19915;-75
2022/10/03 16:57:31;;;;;;;;;;;14.70;99.90;;;;;;6200914;22;19915;-74
2022/10/03 17:00:05;;;;;;;;;;;14.60;99.90;;;;;;6224135;22;20226;-73
2022/10/03 17:02:33;;;;;;;;;;;14.50;99.90;;;;;;6250976;22;19918;-74
2022/10/03 17:05:11;;;;;;;;;;;14.40;99.90;;;;;;6226005;22;19969;-74
2022/10/03 17:07:41;;;;;;;;;;;14.20;99.90;;;;;;6278510;22;20202;-74
2022/10/03 17:10:20;;;;;;;;;;;14.20;99.90;;;;;;6226244;22;19934;-76
2022/10/03 17:12:46;;;;;;;;;;;14.20;99.90;;;;;;6220462;23;19919;-75
2022/10/03 17:15:19;;;;;;;;;;;14.10;99.90;;;;;;6246189;23;19934;-77
2022/10/03 17:18:10;;;;;;;;;;;14.00;99.90;;;;;;6220821;23;19990;-74
2022/10/03 17:21:08;;;;;;;;;;;13.80;99.90;;;;;;6245547;22;19915;-78
2022/10/03 17:23:36;;;;;;;;;;;13.80;99.90;;;;;;6245698;23;19943;-71
2022/10/03 17:26:11;;;;;;;;;;;13.70;99.90;;;;;;6245909;23;19915;-75
2022/10/03 17:28:58;;;;;;;;;;;13.60;99.90;;;;;;6246989;23;19911;-78
2022/10/03 17:31:32;;;;;;;;;;;13.60;99.90;;;;;;6220314;23;20371;-74
2022/10/03 17:34:10;;;;;;;;;;;13.50;99.90;;;;;;6220423;23;19919;-73
2022/10/03 17:39:58;;;;;;;;;;;13.30;99.90;;;;;;6244227;23;19915;-78
2022/10/03 19:35:27;;;;;;;;;;;;;;;;;;;;;
2022/10/03 19:38:06;;;;;;;;;;;11.90;99.90;;;;;;6276317;22;19994;-75
2022/10/03 19:40:38;;;;;;;;;;;11.90;99.90;;;;;;6223448;22;19939;-73
2022/10/03 19:43:24;;;;;;;;;;;11.80;99.90;;;;;;6224006;22;19922;-74
2022/10/03 19:46:05;;;;;;;;;;;11.90;99.90;;;;;;6208167;22;19911;-75
2022/10/03 19:48:32;;;;;;;;;;;11.80;99.90;;;;;;6224442;22;19986;-74
2022/10/03 19:51:07;;;;;;;;;;;11.80;99.90;;;;;;6224219;22;19953;-76
2022/10/03 19:54:05;;;;;;;;;;;11.80;99.90;;;;;;6224726;22;19911;-78
2022/10/03 19:57:20;;;;;;;;;;;;;;;;;;;;;
2022/10/03 20:03:46;;;;;;;;;;;11.70;99.90;;;;;;6278572;22;19947;-76
2022/10/03 20:06:35;;;;;;;;;;;11.70;99.90;;;;;;6254765;22;19958;-71
2022/10/03 20:12:19;;;;;;;;;;;11.70;99.90;;;;;;6250972;22;20284;-75
2022/10/03 20:14:49;;;;;;;;;;;11.70;99.90;;;;;;6226693;22;19911;-73
2022/10/03 20:17:18;;;;;;;;;;;11.70;99.90;;;;;;6251016;22;20234;-76
2022/10/03 20:20:15;;;;;;;;;;;11.70;99.90;;;;;;6225946;22;19922;-77
2022/10/03 20:22:48;;;;;;;;;;;11.70;99.90;;;;;;6225485;22;19919;-76
2022/10/03 20:25:36;;;;;;;;;;;11.70;99.90;;;;;;6225985;22;19911;-76
2022/10/03 20:31:48;;;;;;;;;;;11.70;99.90;;;;;;6094548;23;19940;-77
2022/10/03 20:35:34;;;;;;;;;;;11.70;99.90;;;;;;6053887;23;19918;-76
2022/10/03 20:37:53;;;;;;;;;;;11.80;99.90;;;;;;6064035;23;19913;-73
2022/10/03 20:40:39;;;;;;;;;;;11.70;99.90;;;;;;6047927;23;19916;-73
2022/10/03 20:43:08;;;;;;;;;;;11.70;99.90;;;;;;6188915;23;19943;-74
2022/10/03 20:45:35;;;;;;;;;;;11.80;99.90;;;;;;6195756;23;19943;-72
2022/10/03 20:48:27;;;;;;;;;;;11.70;99.90;;;;;;6195742;23;19916;-74
2022/10/03 20:50:56;;;;;;;;;;;11.80;99.90;;;;;;6216469;23;19915;-72
2022/10/03 20:53:25;;;;;;;;;;;11.80;99.90;;;;;;6196014;23;19915;-75
2022/10/03 20:59:20;;;;;;;;;;;11.80;99.90;;;;;;6149858;23;19920;-75
2022/10/03 21:01:46;;;;;;;;;;;11.80;99.90;;;;;;6195268;23;19912;-75
2022/10/03 21:10:46;;;;;;;;;;;11.70;99.90;;;;;;6247394;22;19926;-71
